Webcam 1 more information Webcam 1


Webcam 2 more information Webcam 2


altri nostri siti meteo:

Pomeziameteo 1Sito sul meteo

Pomeziameteo DashboardSito sul meteo

Caput FrigorisSito sul meteo

BarcellonameteoSito sul meteo

MeteoipassiSito sul meteo

ViterbometeoSito sul meteo

MeteotortoretoSito sul meteo

Stazione LineameteoSito sul meteo



Nessuna attenzione particolare richiesta.    Non ci sono allerte meteo

Report METAR

   
LIBP - Pescara
Dati ricevuti: 06-12-2019 03:50
Coperto  
Coperto  
   Vento: SW 11.1 km/h
Vento: SW 11.1 km/h
Temperatura: 7°C
Temperatura Vento: 5°C
P.to Rugiada: 3°C
Umidita: 76%
Barometro: 1025 hPa
Nuvole: Coperto
Visibilita: oltre 10 km
dettagli cloud: Coperto 2400 ft
LIBP 060250Z AUTO 23006KT 9999 OVC024/// 07/03 Q1025
LIRZ - Perugia
Dati ricevuti: 06-12-2019 03:50
Molto nuvoloso  
Molto nuvoloso  
   Vento: NE 9.3 km/h
Vento: NE 9.3 km/h
Temperatura: 6°C
Temperatura Vento: 4°C
P.to Rugiada: 4°C
Umidita: 87%
Barometro: 1024 hPa
Nuvole: Molto nuvoloso
dettagli cloud: Molto nuvoloso 8300 ft
LIRZ 060250Z AUTO 02005KT //// BKN083/// 06/04 Q1024
LIQN - Rieti
Dati ricevuti: 05-12-2019 16:50
DATI Obsoleti
Sereno  
Sereno  
   Vento: Variabile 3.7 km/h
Vento: Variabile 3.7 km/h
Temperatura: 9°C
P.to Rugiada: 3°C
Umidita: 66%
Barometro: 1022 hPa
Visibilita: oltre 10 km
dettagli cloud: Sereno
LIQN 051550Z VRB02KT CAVOK 09/03 Q1022
LIPY - Falconara
Dati ricevuti: 05-12-2019 23:50
DATI Obsoleti
Nebbia, Parzialmente nuvoloso  
Nebbia, Parzialmente nuvoloso  
   Vento: S 5.6 km/h
Vento: S 5.6 km/h
Temperatura: 4°C
Temperatura Vento: 3°C
P.to Rugiada: 4°C
Umidita: 100%
Barometro: 1026 hPa
Nuvole: Parzialmente nuvoloso
Visibilita: 3 km
dettagli cloud: Parzialmente nuvoloso
LIPY 052250Z 21003KT 3000 BR NSC 04/04 Q1026
  

Script sviluppato da  Saratoga-weather.org Adattato per il modello da  Weerstation Leuven

Potete trovare le nostre info meteo anche a:

Weather Underground

AWEKAS

Citizen Weather Observer Program (CWOP)

HAMweather, WeatherForYou, PWS Weather

Strumentazione usata:

Stazione meteo
Oregon 928

Programma gestore dati meteo
WVIEW

Server per i dati meteo
Pc-WDS5

Oregon 928

WVIEW

Pc-WDS5